Aérodrome :
LOGIN :

S'inscrire | Disclaimer

   EN    FR    IT 

 










Légende :    VFR   VFR Marginal   IFR   IFR Intensif   IFR Très Intensif
Visi : 
Plafond : 
>= 8 km
>= 3000ft
5 à 8 km
1000 à 3000 ft
1500m à 5 km
500 à 1000 ft
800 à 1500m
200 à 500 ft
< 800m
< 200 ft
Symboles :   Orages  Brouillard  Fortes neiges  Fortes précipitations  Vent > 20 kt
SIGMETs :   Divers  Orages  Givrage  Turbulence  Onde Orograph.  Cendres Volcan.






- Altitude de l'aérodrome : 164 ft
- Code IATA : VBY


ESSV - Visby

DERNIER METAR :
  • 191850Z 28008KT 9999 FEW026 BKN036 04/03 Q1004 R21/29//88

METARs EXPIRÉS :
  • 191820Z 29007KT 9999 FEW006 BKN037 04/03 Q1004 R21/29//88
  • 191750Z 27007KT 9999 SCT006 BKN028 04/03 Q1004 R21/29//88
  • 191720Z 29006KT 9999 OVC030 04/03 Q1003 R21/29//88
  • 191650Z 30007KT 9999 FEW008 BKN020 04/03 Q1003 R21/29//88
  • 191620Z 34004KT 9999 -RA FEW018 BKN036 03/02 Q1002 R21/29//88

TAF TAF ESSV
Valide du 19 à 18h jusqu'au 19 à 23h UTC


191730Z 1918/1923 33006KT 9999 BKN030



MET'MAP, la Météo Aéronautique d'un coup d'oeil ! - Copyright ORBIFLY Décembre 2007 - Disclaimer

ORBIFLY MET'MAP TEAM :

Programmation & Développement : Alexandra Zaïnal
Sur une idée originale de : Baudouin d'Aumeries
Assistance à la programmation : Marc-Olivier Méhu
Soutien technique & logistique : Manuel Goepfert

Contact : metmap@orbifly.com




SOURCES & CREDITS :

   NOAA